BAW126P EGGW-EHAM
Flight info
| Callsign | BAW126P |
|---|---|
| Flight time | N/A |
| Altitude | 27000 |
| Route | MATCH Q295 BRAIN M197 REDFA |
| Aircraft | A20N/M-SDE2E3FGHIRWXY/LB1 |
Departure
| Time | 2026-05-07 11:01 |
|---|---|
| Airport | London Luton Airport (EGGW) |
Arrival
| Time | N/A |
|---|---|
| Airport | Amsterdam Airport Schiphol (EHAM) |
| Time | Latitude | Longitude | Altitude | Speed | Heading |
|---|---|---|---|---|---|
| 2026-05-07 10:06 | 51.87839 | -0.37843 | 536 ft | 0 kts | 28° |
| 2026-05-07 10:51 | 51.87832 | -0.37849 | 536 ft | 2 kts | 29° |
| 2026-05-07 10:52 | 51.87818 | -0.37862 | 536 ft | 2 kts | 30° |
| 2026-05-07 10:52 | 51.87804 | -0.37876 | 536 ft | 2 kts | 39° |
| 2026-05-07 10:52 | 51.87797 | -0.37889 | 536 ft | 2 kts | 91° |
| 2026-05-07 10:52 | 51.87799 | -0.37903 | 536 ft | 0 kts | 117° |
| 2026-05-07 10:53 | 51.87799 | -0.37904 | 536 ft | 0 kts | 117° |
| 2026-05-07 10:54 | 51.87798 | -0.37903 | 536 ft | 0 kts | 117° |
| 2026-05-07 10:54 | 51.87797 | -0.37900 | 536 ft | 0 kts | 117° |
| 2026-05-07 10:56 | 51.87791 | -0.37878 | 536 ft | 4 kts | 116° |
| 2026-05-07 10:56 | 51.87773 | -0.37818 | 536 ft | 8 kts | 115° |
| 2026-05-07 10:57 | 51.87745 | -0.37723 | 536 ft | 11 kts | 115° |
| 2026-05-07 10:57 | 51.87708 | -0.37596 | 535 ft | 14 kts | 114° |
| 2026-05-07 10:57 | 51.87644 | -0.37472 | 535 ft | 15 kts | 152° |
| 2026-05-07 10:57 | 51.87537 | -0.37472 | 535 ft | 16 kts | 204° |
| 2026-05-07 10:58 | 51.87451 | -0.37600 | 536 ft | 18 kts | 225° |
| 2026-05-07 10:58 | 51.87362 | -0.37694 | 535 ft | 11 kts | 167° |
| 2026-05-07 10:58 | 51.87337 | -0.37592 | 535 ft | 11 kts | 81° |
| 2026-05-07 10:58 | 51.87341 | -0.37563 | 535 ft | 0 kts | 77° |
| 2026-05-07 11:00 | 51.87343 | -0.37548 | 535 ft | 9 kts | 77° |
| 2026-05-07 11:00 | 51.87435 | -0.37014 | 535 ft | 94 kts | 73° |
| 2026-05-07 11:00 | 51.87678 | -0.35612 | 540 ft | 162 kts | 74° |
| 2026-05-07 11:00 | 51.87999 | -0.33766 | 1060 ft | 179 kts | 75° |
| 2026-05-07 11:01 | 51.88345 | -0.31879 | 1991 ft | 172 kts | 76° |
| 2026-05-07 11:01 | 51.88704 | -0.29813 | 2192 ft | 216 kts | 76° |
| 2026-05-07 11:01 | 51.89119 | -0.27341 | 2787 ft | 239 kts | 77° |
| 2026-05-07 11:01 | 51.89569 | -0.24646 | 3496 ft | 255 kts | 77° |
| 2026-05-07 11:02 | 51.89677 | -0.21784 | 4399 ft | 257 kts | 102° |
| 2026-05-07 11:02 | 51.88988 | -0.19143 | 4825 ft | 258 kts | 128° |
| 2026-05-07 11:02 | 51.87630 | -0.17332 | 4972 ft | 254 kts | 156° |
| 2026-05-07 11:02 | 51.85897 | -0.16612 | 4994 ft | 255 kts | 171° |
| 2026-05-07 11:03 | 51.84151 | -0.16181 | 5001 ft | 257 kts | 169° |
| 2026-05-07 11:03 | 51.82391 | -0.15524 | 4997 ft | 258 kts | 164° |
| 2026-05-07 11:03 | 51.80693 | -0.14628 | 4993 ft | 256 kts | 160° |
| 2026-05-07 11:03 | 51.79030 | -0.13564 | 5004 ft | 266 kts | 158° |
| 2026-05-07 11:04 | 51.77337 | -0.12369 | 4993 ft | 264 kts | 154° |
| 2026-05-07 11:04 | 51.75955 | -0.10472 | 4996 ft | 266 kts | 126° |
| 2026-05-07 11:04 | 51.75270 | -0.07689 | 4997 ft | 272 kts | 98° |
| 2026-05-07 11:04 | 51.75350 | -0.04710 | 4992 ft | 272 kts | 83° |
| 2026-05-07 11:05 | 51.75628 | -0.01682 | 4999 ft | 272 kts | 82° |
| 2026-05-07 11:05 | 51.75923 | 0.01303 | 5012 ft | 265 kts | 83° |
| 2026-05-07 11:05 | 51.76194 | 0.04190 | 5015 ft | 266 kts | 83° |
| 2026-05-07 11:05 | 51.76314 | 0.05541 | 5016 ft | 267 kts | 84° |
| 2026-05-07 11:06 | 51.76558 | 0.08378 | 5018 ft | 266 kts | 84° |
| 2026-05-07 11:06 | 51.76804 | 0.11346 | 5017 ft | 267 kts | 84° |
| 2026-05-07 11:06 | 51.77046 | 0.14271 | 5019 ft | 265 kts | 84° |
| 2026-05-07 11:06 | 51.77288 | 0.17212 | 5028 ft | 266 kts | 84° |
| 2026-05-07 11:07 | 51.77533 | 0.20185 | 5021 ft | 266 kts | 84° |
| 2026-05-07 11:07 | 51.77777 | 0.23143 | 5026 ft | 266 kts | 84° |
| 2026-05-07 11:07 | 51.78019 | 0.26106 | 5030 ft | 266 kts | 84° |
| 2026-05-07 11:07 | 51.78259 | 0.29067 | 5022 ft | 266 kts | 84° |
| 2026-05-07 11:08 | 51.78497 | 0.32032 | 5022 ft | 266 kts | 84° |
| 2026-05-07 11:08 | 51.78734 | 0.35000 | 5022 ft | 266 kts | 84° |
| 2026-05-07 11:08 | 51.78969 | 0.37961 | 5027 ft | 266 kts | 84° |
| 2026-05-07 11:08 | 51.79204 | 0.40921 | 5020 ft | 266 kts | 84° |
| 2026-05-07 11:09 | 51.79440 | 0.43891 | 5021 ft | 266 kts | 84° |
| 2026-05-07 11:09 | 51.79673 | 0.46816 | 5016 ft | 267 kts | 84° |
| 2026-05-07 11:09 | 51.79910 | 0.49825 | 5011 ft | 266 kts | 84° |
| 2026-05-07 11:09 | 51.80141 | 0.52744 | 5014 ft | 267 kts | 84° |
| 2026-05-07 11:10 | 51.80375 | 0.55728 | 5012 ft | 267 kts | 84° |
| 2026-05-07 11:10 | 51.80608 | 0.58697 | 5012 ft | 267 kts | 84° |
| 2026-05-07 11:10 | 51.80841 | 0.61666 | 5021 ft | 266 kts | 84° |
| 2026-05-07 11:10 | 51.81075 | 0.64608 | 5012 ft | 264 kts | 83° |
| 2026-05-07 11:11 | 51.81463 | 0.67523 | 5014 ft | 266 kts | 77° |
| 2026-05-07 11:11 | 51.81917 | 0.70428 | 5011 ft | 266 kts | 78° |
| 2026-05-07 11:11 | 51.82364 | 0.73329 | 5012 ft | 265 kts | 78° |
| 2026-05-07 11:11 | 51.82807 | 0.76228 | 5007 ft | 266 kts | 78° |
| 2026-05-07 11:12 | 51.83252 | 0.79149 | 5116 ft | 269 kts | 78° |
| 2026-05-07 11:12 | 51.83699 | 0.82094 | 5723 ft | 272 kts | 78° |
| 2026-05-07 11:12 | 51.84200 | 0.85047 | 6808 ft | 273 kts | 75° |
| 2026-05-07 11:12 | 51.84748 | 0.87990 | 7768 ft | 277 kts | 74° |
| 2026-05-07 11:13 | 51.85317 | 0.91004 | 8722 ft | 281 kts | 74° |
| 2026-05-07 11:13 | 51.85886 | 0.94057 | 9711 ft | 285 kts | 73° |
| 2026-05-07 11:13 | 51.86457 | 0.97163 | 10506 ft | 296 kts | 73° |
| 2026-05-07 11:13 | 51.87062 | 1.00477 | 10852 ft | 320 kts | 73° |
| 2026-05-07 11:14 | 51.87704 | 1.04005 | 11242 ft | 339 kts | 73° |
| 2026-05-07 11:14 | 51.88371 | 1.07687 | 12027 ft | 344 kts | 73° |
| 2026-05-07 11:14 | 51.89046 | 1.11431 | 12839 ft | 350 kts | 73° |
| 2026-05-07 11:14 | 51.89732 | 1.15236 | 13679 ft | 354 kts | 73° |
| 2026-05-07 11:15 | 51.90425 | 1.19087 | 14429 ft | 359 kts | 73° |
| 2026-05-07 11:15 | 51.91127 | 1.22996 | 15133 ft | 364 kts | 73° |
| 2026-05-07 11:15 | 51.91835 | 1.26942 | 15919 ft | 366 kts | 73° |
| 2026-05-07 11:15 | 51.92550 | 1.30937 | 16568 ft | 373 kts | 74° |
| 2026-05-07 11:16 | 51.93276 | 1.35000 | 17274 ft | 377 kts | 74° |
| 2026-05-07 11:16 | 51.94000 | 1.39062 | 18035 ft | 380 kts | 74° |
| 2026-05-07 11:16 | 51.94737 | 1.43208 | 18632 ft | 385 kts | 74° |
| 2026-05-07 11:16 | 51.95479 | 1.47392 | 19334 ft | 386 kts | 74° |
| 2026-05-07 11:17 | 51.96222 | 1.51592 | 19905 ft | 392 kts | 74° |
| 2026-05-07 11:17 | 51.96974 | 1.55855 | 20581 ft | 393 kts | 74° |
| 2026-05-07 11:17 | 51.97727 | 1.60127 | 21175 ft | 397 kts | 74° |
| 2026-05-07 11:17 | 51.98488 | 1.64459 | 21752 ft | 401 kts | 74° |
| 2026-05-07 11:18 | 51.99251 | 1.68817 | 22403 ft | 403 kts | 75° |
| 2026-05-07 11:18 | 51.99981 | 1.73242 | 22938 ft | 408 kts | 76° |
| 2026-05-07 11:18 | 52.00649 | 1.77582 | 23566 ft | 410 kts | 77° |
| 2026-05-07 11:18 | 52.01333 | 1.82087 | 24015 ft | 415 kts | 76° |
| 2026-05-07 11:19 | 52.01793 | 1.85105 | 24389 ft | 415 kts | 76° |
| 2026-05-07 11:19 | 52.02485 | 1.89635 | 24945 ft | 416 kts | 76° |
| 2026-05-07 11:19 | 52.03417 | 1.95701 | 25689 ft | 416 kts | 76° |
| 2026-05-07 11:19 | 52.04119 | 2.00267 | 26212 ft | 418 kts | 76° |
| 2026-05-07 11:20 | 52.04823 | 2.04856 | 26680 ft | 420 kts | 76° |
| 2026-05-07 11:20 | 52.05249 | 2.07635 | 26924 ft | 422 kts | 76° |
| 2026-05-07 11:20 | 52.05755 | 2.10944 | 27050 ft | 425 kts | 76° |
| 2026-05-07 11:20 | 52.06462 | 2.15585 | 27102 ft | 422 kts | 76° |
| 2026-05-07 11:21 | 52.07166 | 2.20215 | 27095 ft | 422 kts | 76° |
| 2026-05-07 11:21 | 52.07868 | 2.24850 | 27096 ft | 422 kts | 76° |
| 2026-05-07 11:21 | 52.08568 | 2.29482 | 27099 ft | 423 kts | 76° |
| 2026-05-07 11:21 | 52.09267 | 2.34125 | 27105 ft | 422 kts | 76° |
| 2026-05-07 11:22 | 52.09955 | 2.38700 | 27094 ft | 423 kts | 76° |
| 2026-05-07 11:22 | 52.10650 | 2.43345 | 27094 ft | 422 kts | 76° |
| 2026-05-07 11:22 | 52.11499 | 2.47898 | 26757 ft | 422 kts | 69° |
| 2026-05-07 11:22 | 52.12711 | 2.52276 | 25898 ft | 428 kts | 62° |
| 2026-05-07 11:23 | 52.14228 | 2.56495 | 24811 ft | 437 kts | 59° |
| 2026-05-07 11:23 | 52.15796 | 2.60767 | 23954 ft | 440 kts | 59° |
| 2026-05-07 11:23 | 52.17353 | 2.65038 | 23258 ft | 437 kts | 59° |
| 2026-05-07 11:23 | 52.18878 | 2.69247 | 22624 ft | 430 kts | 59° |
| 2026-05-07 11:24 | 52.20394 | 2.73446 | 21894 ft | 427 kts | 59° |
| 2026-05-07 11:24 | 52.21887 | 2.77595 | 21240 ft | 422 kts | 59° |
| 2026-05-07 11:24 | 52.23363 | 2.81702 | 20564 ft | 419 kts | 59° |
| 2026-05-07 11:24 | 52.24828 | 2.85786 | 19934 ft | 414 kts | 59° |
| 2026-05-07 11:25 | 52.26274 | 2.89821 | 19324 ft | 410 kts | 59° |
| 2026-05-07 11:25 | 52.27694 | 2.93793 | 18981 ft | 399 kts | 59° |
| 2026-05-07 11:25 | 52.29076 | 2.97663 | 18626 ft | 389 kts | 59° |
| 2026-05-07 11:25 | 52.30425 | 3.01445 | 18268 ft | 380 kts | 59° |
| 2026-05-07 11:26 | 52.31742 | 3.05144 | 17938 ft | 375 kts | 59° |
| 2026-05-07 11:26 | 52.33017 | 3.08730 | 17592 ft | 377 kts | 59° |
| 2026-05-07 11:26 | 52.34356 | 3.12502 | 17249 ft | 376 kts | 59° |
| 2026-05-07 11:26 | 52.35663 | 3.16188 | 16916 ft | 373 kts | 59° |
| 2026-05-07 11:27 | 52.36958 | 3.19845 | 16578 ft | 370 kts | 59° |
| 2026-05-07 11:27 | 52.38245 | 3.23487 | 16240 ft | 369 kts | 59° |
| 2026-05-07 11:27 | 52.39526 | 3.27113 | 15914 ft | 367 kts | 59° |
| 2026-05-07 11:27 | 52.40800 | 3.30729 | 15584 ft | 366 kts | 59° |
| 2026-05-07 11:28 | 52.42067 | 3.34328 | 15251 ft | 363 kts | 59° |
| 2026-05-07 11:28 | 52.43321 | 3.37896 | 14935 ft | 361 kts | 59° |
| 2026-05-07 11:28 | 52.44463 | 3.41548 | 14611 ft | 360 kts | 66° |
| 2026-05-07 11:28 | 52.45277 | 3.45416 | 14290 ft | 358 kts | 75° |
| 2026-05-07 11:29 | 52.45837 | 3.49382 | 13971 ft | 357 kts | 77° |
| 2026-05-07 11:29 | 52.46398 | 3.53317 | 13639 ft | 355 kts | 76° |
| 2026-05-07 11:29 | 52.46964 | 3.57245 | 13315 ft | 352 kts | 76° |
| 2026-05-07 11:29 | 52.47526 | 3.61143 | 12997 ft | 351 kts | 76° |
| 2026-05-07 11:30 | 52.48078 | 3.64988 | 12689 ft | 348 kts | 76° |
| 2026-05-07 11:30 | 52.48630 | 3.68856 | 12373 ft | 348 kts | 76° |
| 2026-05-07 11:30 | 52.49174 | 3.72685 | 12054 ft | 346 kts | 77° |
| 2026-05-07 11:30 | 52.49715 | 3.76506 | 11789 ft | 342 kts | 77° |
| 2026-05-07 11:31 | 52.50242 | 3.80246 | 11672 ft | 330 kts | 77° |
| 2026-05-07 11:31 | 52.50748 | 3.83841 | 11556 ft | 317 kts | 77° |
| 2026-05-07 11:31 | 52.51233 | 3.87293 | 11427 ft | 305 kts | 77° |
| 2026-05-07 11:31 | 52.51704 | 3.90651 | 11105 ft | 300 kts | 77° |
| 2026-05-07 11:32 | 52.52214 | 3.97343 | 10321 ft | 295 kts | 99° |
| 2026-05-07 11:32 | 52.51649 | 4.00468 | 10148 ft | 285 kts | 113° |
| 2026-05-07 11:32 | 52.50896 | 4.03486 | 10099 ft | 291 kts | 112° |
| 2026-05-07 11:33 | 52.50145 | 4.06566 | 10094 ft | 290 kts | 112° |
| 2026-05-07 11:33 | 52.49401 | 4.09630 | 10075 ft | 289 kts | 112° |
| 2026-05-07 11:33 | 52.48659 | 4.12685 | 9847 ft | 289 kts | 112° |
| 2026-05-07 11:33 | 52.47906 | 4.15769 | 9391 ft | 291 kts | 112° |
| 2026-05-07 11:34 | 52.47165 | 4.18798 | 9253 ft | 283 kts | 112° |
| 2026-05-07 11:34 | 52.46426 | 4.21812 | 9141 ft | 286 kts | 112° |
| 2026-05-07 11:34 | 52.45684 | 4.24833 | 9035 ft | 285 kts | 112° |
| 2026-05-07 11:34 | 52.44944 | 4.27840 | 8908 ft | 284 kts | 112° |
| 2026-05-07 11:35 | 52.44204 | 4.30843 | 8795 ft | 284 kts | 112° |
| 2026-05-07 11:35 | 52.43466 | 4.33833 | 8680 ft | 282 kts | 112° |
| 2026-05-07 11:35 | 52.42732 | 4.36802 | 8595 ft | 278 kts | 112° |
| 2026-05-07 11:35 | 52.42025 | 4.39662 | 8504 ft | 268 kts | 112° |
| 2026-05-07 11:36 | 52.41339 | 4.42433 | 8403 ft | 257 kts | 112° |
| 2026-05-07 11:36 | 52.40682 | 4.45087 | 8301 ft | 245 kts | 112° |
| 2026-05-07 11:36 | 52.40052 | 4.47624 | 8145 ft | 237 kts | 112° |
| 2026-05-07 11:36 | 52.39439 | 4.50089 | 8038 ft | 235 kts | 112° |
| 2026-05-07 11:37 | 52.38812 | 4.52608 | 7937 ft | 238 kts | 112° |
| 2026-05-07 11:37 | 52.38195 | 4.55084 | 7841 ft | 236 kts | 112° |
| 2026-05-07 11:37 | 52.37573 | 4.57582 | 7729 ft | 236 kts | 112° |
| 2026-05-07 11:37 | 52.36954 | 4.60059 | 7646 ft | 236 kts | 112° |
| 2026-05-07 11:38 | 52.36333 | 4.62543 | 7545 ft | 235 kts | 112° |
| 2026-05-07 11:38 | 52.35714 | 4.65017 | 7447 ft | 235 kts | 112° |
| 2026-05-07 11:38 | 52.35097 | 4.67480 | 7345 ft | 234 kts | 112° |
| 2026-05-07 11:38 | 52.34479 | 4.69943 | 7269 ft | 234 kts | 112° |
| 2026-05-07 11:39 | 52.33862 | 4.72402 | 7171 ft | 233 kts | 113° |
| 2026-05-07 11:39 | 52.33136 | 4.74755 | 7091 ft | 232 kts | 125° |
| 2026-05-07 11:39 | 52.32060 | 4.76704 | 7074 ft | 231 kts | 140° |
| 2026-05-07 11:39 | 52.30839 | 4.78423 | 7079 ft | 232 kts | 139° |
| 2026-05-07 11:40 | 52.29625 | 4.80169 | 7076 ft | 232 kts | 139° |
| 2026-05-07 11:40 | 52.28419 | 4.81919 | 7078 ft | 232 kts | 139° |
| 2026-05-07 11:40 | 52.27216 | 4.83667 | 7074 ft | 232 kts | 139° |
| 2026-05-07 11:40 | 52.26009 | 4.85417 | 7077 ft | 232 kts | 139° |
| 2026-05-07 11:41 | 52.24804 | 4.87161 | 7079 ft | 232 kts | 139° |
| 2026-05-07 11:41 | 52.23603 | 4.88896 | 7077 ft | 232 kts | 139° |
| 2026-05-07 11:41 | 52.22229 | 4.90215 | 7078 ft | 230 kts | 166° |
| 2026-05-07 11:41 | 52.20633 | 4.90362 | 7080 ft | 231 kts | 184° |
| 2026-05-07 11:42 | 52.19028 | 4.90193 | 7071 ft | 231 kts | 184° |
| 2026-05-07 11:42 | 52.17424 | 4.90027 | 7070 ft | 230 kts | 183° |
| 2026-05-07 11:42 | 52.15821 | 4.89869 | 7071 ft | 232 kts | 183° |
| 2026-05-07 11:42 | 52.14214 | 4.89717 | 7071 ft | 231 kts | 183° |
| 2026-05-07 11:43 | 52.12636 | 4.89387 | 7075 ft | 231 kts | 200° |
| 2026-05-07 11:43 | 52.11328 | 4.87897 | 7071 ft | 233 kts | 232° |
| 2026-05-07 11:43 | 52.10704 | 4.85496 | 7071 ft | 234 kts | 265° |
| 2026-05-07 11:43 | 52.10741 | 4.82853 | 7070 ft | 235 kts | 276° |
| 2026-05-07 11:44 | 52.11228 | 4.80335 | 7076 ft | 236 kts | 302° |
| 2026-05-07 11:44 | 52.12290 | 4.78334 | 7027 ft | 233 kts | 316° |
| 2026-05-07 11:44 | 52.13569 | 4.76762 | 6789 ft | 232 kts | 339° |
| 2026-05-07 11:44 | 52.15142 | 4.76390 | 6375 ft | 237 kts | 3° |
| 2026-05-07 11:45 | 52.16831 | 4.76551 | 5694 ft | 251 kts | 5° |
| 2026-05-07 11:45 | 52.18638 | 4.76756 | 4824 ft | 270 kts | 5° |
| 2026-05-07 11:45 | 52.20575 | 4.76971 | 3933 ft | 286 kts | 4° |
| 2026-05-07 11:45 | 52.22607 | 4.77176 | 3061 ft | 299 kts | 4° |
| 2026-05-07 11:46 | 52.24710 | 4.77375 | 2407 ft | 303 kts | 4° |
| 2026-05-07 11:46 | 52.26747 | 4.77561 | 2119 ft | 284 kts | 4° |
| 2026-05-07 11:46 | 52.28656 | 4.77732 | 1988 ft | 262 kts | 4° |
| 2026-05-07 11:46 | 52.30400 | 4.77886 | 1975 ft | 240 kts | 4° |
| 2026-05-07 11:47 | 52.31992 | 4.78018 | 1977 ft | 219 kts | 4° |
| 2026-05-07 11:47 | 52.33447 | 4.78145 | 1974 ft | 203 kts | 4° |
| 2026-05-07 11:47 | 52.34914 | 4.78286 | 1972 ft | 214 kts | 4° |
| 2026-05-07 11:47 | 52.36356 | 4.78425 | 1979 ft | 211 kts | 4° |
| 2026-05-07 11:48 | 52.37795 | 4.78560 | 1972 ft | 210 kts | 4° |
| 2026-05-07 11:48 | 52.39055 | 4.78675 | 1969 ft | 210 kts | 4° |
| 2026-05-07 11:48 | 52.40492 | 4.78710 | 1967 ft | 210 kts | 350° |
| 2026-05-07 11:48 | 52.41805 | 4.77655 | 1984 ft | 214 kts | 316° |
| 2026-05-07 11:49 | 52.42704 | 4.75692 | 1982 ft | 219 kts | 304° |
| 2026-05-07 11:49 | 52.43530 | 4.73623 | 1983 ft | 216 kts | 304° |
| 2026-05-07 11:49 | 52.44350 | 4.71556 | 1981 ft | 217 kts | 304° |
| 2026-05-07 11:49 | 52.45171 | 4.69493 | 1982 ft | 216 kts | 304° |
| 2026-05-07 11:50 | 52.46000 | 4.67441 | 1966 ft | 213 kts | 304° |
| 2026-05-07 11:50 | 52.46818 | 4.65393 | 1972 ft | 218 kts | 304° |
| 2026-05-07 11:50 | 52.47635 | 4.63327 | 1970 ft | 212 kts | 304° |
| 2026-05-07 11:50 | 52.48437 | 4.61270 | 1980 ft | 216 kts | 304° |